createdAt,value
2018-09-02T00:00:30.851Z,1018.0
2018-09-02T00:01:32.744Z,1018.0
2018-09-02T00:02:34.592Z,1018.0
2018-09-02T00:03:36.362Z,1018.0
2018-09-02T00:04:38.590Z,1018.0
2018-09-02T00:05:40.289Z,1017.9
2018-09-02T00:06:42.507Z,1017.9
2018-09-02T00:07:44.587Z,1018.0
2018-09-02T00:08:46.491Z,1017.9
2018-09-02T00:09:48.696Z,1017.9
2018-09-02T00:10:50.952Z,1017.9
2018-09-02T00:11:53.138Z,1017.9
2018-09-02T00:12:55.264Z,1017.9
2018-09-02T00:13:57.047Z,1017.9
2018-09-02T00:14:59.251Z,1017.9
2018-09-02T00:16:01.094Z,1017.9
2018-09-02T00:17:02.976Z,1017.9
2018-09-02T00:18:04.909Z,1017.9
2018-09-02T00:19:06.800Z,1017.9
2018-09-02T00:20:08.637Z,1017.9
2018-09-02T00:21:10.355Z,1017.9
2018-09-02T00:22:12.255Z,1017.9
2018-09-02T00:23:14.147Z,1017.9
2018-09-02T00:24:16.046Z,1017.9
2018-09-02T00:25:18.257Z,1017.9
2018-09-02T00:26:20.295Z,1017.9
2018-09-02T00:27:22.047Z,1017.9
2018-09-02T00:28:24.211Z,1017.9
2018-09-02T00:29:26.445Z,1017.9
2018-09-02T00:30:28.202Z,1017.9
2018-09-02T00:31:30.450Z,1017.9
2018-09-02T00:32:32.304Z,1017.9
2018-09-02T00:33:34.455Z,1017.9
2018-09-02T00:34:36.257Z,1017.9
2018-09-02T00:35:38.122Z,1017.9
2018-09-02T00:36:40.313Z,1017.9
2018-09-02T00:37:42.068Z,1017.9
2018-09-02T00:38:44.388Z,1017.9
2018-09-02T00:39:46.144Z,1017.8
2018-09-02T00:40:47.932Z,1017.8
2018-09-02T00:41:50.082Z,1017.8
2018-09-02T00:42:51.946Z,1017.8
2018-09-02T00:43:53.822Z,1017.8
2018-09-02T00:44:56.174Z,1017.8
2018-09-02T00:45:57.955Z,1017.8
2018-09-02T00:46:59.745Z,1017.8
2018-09-02T00:48:01.529Z,1017.8
2018-09-02T00:49:03.431Z,1017.8
2018-09-02T00:50:05.328Z,1017.8
2018-09-02T00:51:07.574Z,1017.8
2018-09-02T00:52:09.655Z,1017.8
2018-09-02T00:53:11.773Z,1017.8
2018-09-02T00:54:13.657Z,1017.8
2018-09-02T00:55:15.883Z,1017.7
2018-09-02T00:56:17.648Z,1017.7
2018-09-02T00:57:19.758Z,1017.7
2018-09-02T00:58:21.932Z,1017.8
2018-09-02T00:59:23.967Z,1017.8
2018-09-02T01:00:25.825Z,1017.8
2018-09-02T01:01:27.681Z,1017.8
2018-09-02T01:02:29.572Z,1017.8
2018-09-02T01:03:31.827Z,1017.8
2018-09-02T01:04:33.888Z,1017.8
2018-09-02T01:05:36.012Z,1017.8
2018-09-02T01:06:37.778Z,1017.8
2018-09-02T01:07:39.709Z,1017.8
2018-09-02T01:08:41.505Z,1017.8
2018-09-02T01:09:43.852Z,1017.8
2018-09-02T01:10:45.997Z,1017.8
2018-09-02T01:11:48.249Z,1017.8
2018-09-02T01:12:50.373Z,1017.9
2018-09-02T01:13:52.534Z,1017.9
2018-09-02T01:14:54.381Z,1017.9
2018-09-02T01:15:56.291Z,1017.9
2018-09-02T01:16:58.591Z,1018.0
2018-09-02T01:18:00.603Z,1018.0
2018-09-02T01:19:02.685Z,1018.0
2018-09-02T01:20:04.881Z,1018.0
2018-09-02T01:21:06.923Z,1018.0
2018-09-02T01:22:08.709Z,1018.0
2018-09-02T01:23:10.843Z,1018.0
2018-09-02T01:24:12.841Z,1018.0
2018-09-02T01:25:15.642Z,1018.0
2018-09-02T01:26:17.887Z,1018.0
2018-09-02T01:27:20.022Z,1018.0
2018-09-02T01:28:21.895Z,1018.0
2018-09-02T01:29:24.080Z,1018.0
2018-09-02T01:30:25.900Z,1018.0
2018-09-02T01:31:27.795Z,1018.0
2018-09-02T01:32:29.598Z,1018.0
2018-09-02T01:33:31.443Z,1018.0
2018-09-02T01:34:33.371Z,1018.0
2018-09-02T01:35:35.657Z,1018.0
2018-09-02T01:36:37.492Z,1018.0
2018-09-02T01:37:39.713Z,1018.0
2018-09-02T01:38:41.882Z,1018.0
2018-09-02T01:39:44.840Z,1018.0
2018-09-02T01:40:46.632Z,1018.0
2018-09-02T01:41:48.535Z,1018.0
2018-09-02T01:42:50.321Z,1018.0
2018-09-02T01:43:52.145Z,1018.0
2018-09-02T01:44:53.932Z,1018.0
2018-09-02T01:45:55.780Z,1018.0
2018-09-02T01:46:57.747Z,1018.0
2018-09-02T01:47:59.655Z,1018.0
2018-09-02T01:49:01.513Z,1018.0
2018-09-02T01:50:03.738Z,1018.0
2018-09-02T01:51:05.571Z,1018.0
2018-09-02T01:52:07.749Z,1018.0
2018-09-02T01:53:09.710Z,1018.0
2018-09-02T01:54:11.751Z,1018.1
2018-09-02T01:55:13.880Z,1018.0
2018-09-02T01:56:16.237Z,1018.0
2018-09-02T01:57:18.162Z,1018.1
2018-09-02T01:58:20.019Z,1018.0
2018-09-02T01:59:22.255Z,1018.0
2018-09-02T02:00:24.132Z,1018.0
2018-09-02T02:01:26.192Z,1018.0
2018-09-02T02:02:28.058Z,1018.0
2018-09-02T02:03:30.398Z,1018.0
2018-09-02T02:04:32.324Z,1018.0
2018-09-02T02:05:34.392Z,1018.0
2018-09-02T02:06:36.667Z,1018.0
2018-09-02T02:07:38.705Z,1018.0
2018-09-02T02:08:40.798Z,1018.0
2018-09-02T02:09:42.715Z,1018.0
2018-09-02T02:10:44.617Z,1018.0
2018-09-02T02:11:46.522Z,1018.0
2018-09-02T02:12:48.760Z,1018.0
2018-09-02T02:13:50.751Z,1018.0
2018-09-02T02:14:52.874Z,1018.0
2018-09-02T02:15:54.718Z,1018.0
2018-09-02T02:16:56.642Z,1018.0
2018-09-02T02:17:58.614Z,1018.0
2018-09-02T02:19:00.589Z,1018.0
2018-09-02T02:20:02.512Z,1018.0
2018-09-02T02:21:04.762Z,1018.0
2018-09-02T02:22:06.513Z,1018.0
2018-09-02T02:23:08.395Z,1017.9
2018-09-02T02:24:10.372Z,1018.0
2018-09-02T02:25:12.357Z,1018.0
2018-09-02T02:26:14.294Z,1017.9
2018-09-02T02:27:16.212Z,1017.9
2018-09-02T02:28:18.066Z,1017.9
2018-09-02T02:29:20.032Z,1017.9
2018-09-02T02:30:21.934Z,1017.9
2018-09-02T02:31:23.872Z,1017.9
2018-09-02T02:32:25.855Z,1017.9
2018-09-02T02:33:27.892Z,1017.9
2018-09-02T02:34:29.889Z,1017.9
2018-09-02T02:35:31.813Z,1017.9
2018-09-02T02:36:33.745Z,1017.9
2018-09-02T02:37:35.592Z,1017.9
2018-09-02T02:38:37.582Z,1017.9
2018-09-02T02:39:39.708Z,1017.9
2018-09-02T02:40:41.687Z,1017.9
2018-09-02T02:41:43.697Z,1017.8
2018-09-02T02:42:45.734Z,1017.8
2018-09-02T02:43:47.854Z,1017.8
2018-09-02T02:44:49.803Z,1017.8
2018-09-02T02:45:51.781Z,1017.8
2018-09-02T02:46:53.912Z,1017.8
2018-09-02T02:47:55.916Z,1017.8
2018-09-02T02:48:57.939Z,1017.8
2018-09-02T02:49:59.839Z,1017.8
2018-09-02T02:51:02.018Z,1017.8
2018-09-02T02:52:04.008Z,1017.8
2018-09-02T02:53:05.967Z,1017.8
2018-09-02T02:54:07.856Z,1017.8
2018-09-02T02:55:09.869Z,1017.8
2018-09-02T02:56:11.892Z,1017.8
2018-09-02T02:57:13.786Z,1017.8
2018-09-02T02:58:15.676Z,1017.7
2018-09-02T02:59:17.619Z,1017.7
2018-09-02T03:00:19.403Z,1017.7
2018-09-02T03:01:21.570Z,1017.7
2018-09-02T03:02:23.443Z,1017.7
2018-09-02T03:03:25.511Z,1017.7
2018-09-02T03:04:27.370Z,1017.7
2018-09-02T03:05:29.332Z,1017.7
2018-09-02T03:06:31.224Z,1017.7
2018-09-02T03:07:33.222Z,1017.7
2018-09-02T03:08:35.327Z,1017.7
2018-09-02T03:09:37.236Z,1017.7
2018-09-02T03:10:39.280Z,1017.7
2018-09-02T03:11:41.258Z,1017.7
2018-09-02T03:12:43.248Z,1017.7
2018-09-02T03:13:45.556Z,1017.6
2018-09-02T03:14:47.527Z,1017.6
2018-09-02T03:15:49.563Z,1017.6
2018-09-02T03:16:51.542Z,1017.6
2018-09-02T03:17:53.506Z,1017.6
2018-09-02T03:18:55.392Z,1017.7
2018-09-02T03:19:57.538Z,1017.6
2018-09-02T03:20:59.561Z,1017.7
2018-09-02T03:22:01.520Z,1017.7
2018-09-02T03:23:03.659Z,1017.6
2018-09-02T03:24:05.612Z,1017.6
2018-09-02T03:25:07.872Z,1017.6
2018-09-02T03:26:09.831Z,1017.6
2018-09-02T03:27:12.029Z,1017.7
2018-09-02T03:28:13.972Z,1017.7
2018-09-02T03:29:16.126Z,1017.6
2018-09-02T03:30:18.307Z,1017.6
2018-09-02T03:31:20.367Z,1017.6
2018-09-02T03:32:22.293Z,1017.6
2018-09-02T03:33:24.316Z,1017.5
2018-09-02T03:34:26.484Z,1017.6
2018-09-02T03:35:28.327Z,1017.5
2018-09-02T03:36:30.468Z,1017.5
2018-09-02T03:37:32.487Z,1017.6
2018-09-02T03:38:34.456Z,1017.6
2018-09-02T03:39:36.414Z,1017.6
2018-09-02T03:40:38.418Z,1017.5
2018-09-02T03:41:41.391Z,1017.5
2018-09-02T03:42:43.675Z,1017.5
2018-09-02T03:43:45.774Z,1017.5
2018-09-02T03:44:47.873Z,1017.5
2018-09-02T03:45:49.818Z,1017.4
2018-09-02T03:46:51.879Z,1017.4
2018-09-02T03:47:53.804Z,1017.4
2018-09-02T03:48:55.766Z,1017.4
2018-09-02T03:49:57.787Z,1017.4
2018-09-02T03:50:59.976Z,1017.4
2018-09-02T03:52:02.275Z,1017.4
2018-09-02T03:53:04.252Z,1017.4
2018-09-02T03:54:06.253Z,1017.4
2018-09-02T03:55:08.184Z,1017.4
2018-09-02T03:56:10.162Z,1017.4
2018-09-02T03:57:12.038Z,1017.3
2018-09-02T03:58:14.061Z,1017.4
2018-09-02T03:59:16.200Z,1017.4
2018-09-02T04:00:18.124Z,1017.4
2018-09-02T04:01:20.132Z,1017.4
2018-09-02T04:02:21.959Z,1017.3
2018-09-02T04:03:24.129Z,1017.3
2018-09-02T04:04:26.158Z,1017.4
2018-09-02T04:05:28.121Z,1017.4
2018-09-02T04:06:30.068Z,1017.4
2018-09-02T04:07:32.260Z,1017.3
2018-09-02T04:08:34.487Z,1017.3
2018-09-02T04:09:36.366Z,1017.4
2018-09-02T04:10:38.329Z,1017.3
2018-09-02T04:11:40.347Z,1017.3
2018-09-02T04:12:42.280Z,1017.3
2018-09-02T04:13:44.379Z,1017.3
2018-09-02T04:14:46.506Z,1017.2
2018-09-02T04:15:48.438Z,1017.2
2018-09-02T04:16:50.376Z,1017.2
2018-09-02T04:17:52.452Z,1017.2
2018-09-02T04:18:54.289Z,1017.2
2018-09-02T04:19:56.359Z,1017.2
2018-09-02T04:20:58.424Z,1017.3
2018-09-02T04:22:00.673Z,1017.3
2018-09-02T04:23:02.538Z,1017.3
2018-09-02T04:24:04.591Z,1017.3
2018-09-02T04:25:06.766Z,1017.3
2018-09-02T04:26:08.716Z,1017.3
2018-09-02T04:27:10.853Z,1017.3
2018-09-02T04:28:12.903Z,1017.3
2018-09-02T04:29:14.784Z,1017.3
2018-09-02T04:30:16.846Z,1017.3
2018-09-02T04:31:18.897Z,1017.3
2018-09-02T04:32:20.753Z,1017.3
2018-09-02T04:33:22.499Z,1017.2
2018-09-02T04:34:24.605Z,1017.3
2018-09-02T04:35:26.672Z,1017.2
2018-09-02T04:36:28.612Z,1017.2
2018-09-02T04:37:30.565Z,1017.3
2018-09-02T04:38:32.661Z,1017.2
2018-09-02T04:39:34.482Z,1017.2
2018-09-02T04:40:36.303Z,1017.2
2018-09-02T04:41:38.195Z,1017.1
2018-09-02T04:42:40.321Z,1017.2
2018-09-02T04:43:42.261Z,1017.1
2018-09-02T04:44:44.356Z,1017.1
2018-09-02T04:45:46.399Z,1017.2
2018-09-02T04:46:48.205Z,1017.2
2018-09-02T04:47:50.314Z,1017.1
2018-09-02T04:48:52.384Z,1017.2
2018-09-02T04:49:54.345Z,1017.2
2018-09-02T04:50:56.510Z,1017.2
2018-09-02T04:51:58.277Z,1017.2
2018-09-02T04:53:00.160Z,1017.2
2018-09-02T04:54:02.275Z,1017.2
2018-09-02T04:55:04.411Z,1017.2
2018-09-02T04:56:06.778Z,1017.2
2018-09-02T04:57:08.754Z,1017.3
2018-09-02T04:58:10.973Z,1017.2
2018-09-02T04:59:13.037Z,1017.3
2018-09-02T05:00:15.122Z,1017.2
2018-09-02T05:01:17.106Z,1017.2
2018-09-02T05:02:19.197Z,1017.2
2018-09-02T05:03:21.238Z,1017.2
2018-09-02T05:04:23.016Z,1017.2
2018-09-02T05:05:25.157Z,1017.2
2018-09-02T05:06:26.976Z,1017.2
2018-09-02T05:07:29.167Z,1017.2
2018-09-02T05:08:31.305Z,1017.2
2018-09-02T05:09:33.569Z,1017.2
2018-09-02T05:10:35.762Z,1017.2
2018-09-02T05:11:37.888Z,1017.2
2018-09-02T05:12:39.909Z,1017.2
2018-09-02T05:13:41.778Z,1017.2
2018-09-02T05:14:43.990Z,1017.2
2018-09-02T05:15:46.014Z,1017.2
2018-09-02T05:16:48.164Z,1017.3
2018-09-02T05:17:50.368Z,1017.2
2018-09-02T05:18:52.584Z,1017.3
2018-09-02T05:19:54.636Z,1017.3
2018-09-02T05:20:56.478Z,1017.3
2018-09-02T05:21:58.666Z,1017.3
2018-09-02T05:23:00.670Z,1017.3
2018-09-02T05:24:02.752Z,1017.3
2018-09-02T05:25:04.554Z,1017.3
2018-09-02T05:26:06.665Z,1017.3
2018-09-02T05:27:08.774Z,1017.3
2018-09-02T05:28:10.654Z,1017.3
2018-09-02T05:29:12.429Z,1017.3
2018-09-02T05:30:14.255Z,1017.4
2018-09-02T05:31:16.113Z,1017.4
2018-09-02T05:32:18.191Z,1017.4
2018-09-02T05:33:20.223Z,1017.4
2018-09-02T05:34:22.020Z,1017.4
2018-09-02T05:35:24.318Z,1017.4
2018-09-02T05:36:26.064Z,1017.5
2018-09-02T05:37:28.420Z,1017.5
2018-09-02T05:38:30.190Z,1017.5
2018-09-02T05:39:32.113Z,1017.5
2018-09-02T05:40:34.293Z,1017.5
2018-09-02T05:41:36.220Z,1017.5
2018-09-02T05:42:38.017Z,1017.5
2018-09-02T05:43:40.073Z,1017.5
2018-09-02T05:44:41.868Z,1017.5
2018-09-02T05:45:43.990Z,1017.6
2018-09-02T05:46:46.422Z,1017.6
2018-09-02T05:47:48.490Z,1017.6
2018-09-02T05:48:50.326Z,1017.6
2018-09-02T05:49:52.437Z,1017.6
2018-09-02T05:50:54.290Z,1017.6
2018-09-02T05:51:56.154Z,1017.6
2018-09-02T05:52:57.948Z,1017.7
2018-09-02T05:54:00.295Z,1017.7
2018-09-02T05:55:02.093Z,1017.7
2018-09-02T05:56:04.213Z,1017.7
2018-09-02T05:57:06.224Z,1017.7
2018-09-02T05:58:07.986Z,1017.7
2018-09-02T05:59:10.007Z,1017.7
2018-09-02T06:00:12.212Z,1017.6
2018-09-02T06:01:14.461Z,1017.7
2018-09-02T06:02:16.717Z,1017.7
2018-09-02T06:03:18.806Z,1017.8
2018-09-02T06:04:21.029Z,1017.8
2018-09-02T06:05:23.118Z,1017.8
2018-09-02T06:06:25.379Z,1017.8
2018-09-02T06:07:27.412Z,1017.8
2018-09-02T06:08:29.444Z,1017.8
2018-09-02T06:09:31.755Z,1017.8
2018-09-02T06:10:33.776Z,1017.8
2018-09-02T06:11:36.188Z,1017.8
2018-09-02T06:12:38.561Z,1017.8
2018-09-02T06:13:40.683Z,1017.8
2018-09-02T06:14:42.513Z,1017.8
2018-09-02T06:15:44.822Z,1017.9
2018-09-02T06:16:46.968Z,1017.9
2018-09-02T06:17:49.073Z,1017.9
2018-09-02T06:18:50.933Z,1017.9
2018-09-02T06:19:52.899Z,1017.9
2018-09-02T06:20:55.226Z,1017.9
2018-09-02T06:21:57.425Z,1017.9
2018-09-02T06:22:59.313Z,1017.9
2018-09-02T06:24:01.184Z,1017.9
2018-09-02T06:25:03.198Z,1017.8
2018-09-02T06:26:05.153Z,1017.8
2018-09-02T06:27:07.166Z,1017.8
2018-09-02T06:28:09.072Z,1017.8
2018-09-02T06:29:10.966Z,1017.8
2018-09-02T06:30:12.883Z,1017.8
2018-09-02T06:31:15.136Z,1017.8
2018-09-02T06:32:16.931Z,1017.8
2018-09-02T06:33:19.158Z,1017.8
2018-09-02T06:34:21.160Z,1017.8
2018-09-02T06:35:23.079Z,1017.8
2018-09-02T06:36:24.807Z,1017.8
2018-09-02T06:37:26.974Z,1017.8
2018-09-02T06:38:29.277Z,1017.8
2018-09-02T06:39:31.584Z,1017.9
2018-09-02T06:40:33.464Z,1017.9
2018-09-02T06:41:35.377Z,1017.9
2018-09-02T06:42:37.432Z,1017.9
2018-09-02T06:43:39.573Z,1017.9
2018-09-02T06:44:41.756Z,1017.9
2018-09-02T06:45:43.968Z,1017.9
2018-09-02T06:46:45.875Z,1017.9
2018-09-02T06:47:47.996Z,1017.9
2018-09-02T06:48:50.028Z,1017.9
2018-09-02T06:49:52.672Z,1017.9
2018-09-02T06:50:54.853Z,1018.0
2018-09-02T06:51:56.626Z,1017.9
2018-09-02T06:52:58.573Z,1018.0
2018-09-02T06:54:00.757Z,1018.0
2018-09-02T06:55:02.798Z,1018.0
2018-09-02T06:56:05.055Z,1018.0
2018-09-02T06:57:06.894Z,1018.0
2018-09-02T06:58:08.775Z,1018.0
2018-09-02T06:59:10.718Z,1018.0
2018-09-02T07:00:13.087Z,1018.0
2018-09-02T07:01:14.864Z,1018.0
2018-09-02T07:02:16.703Z,1018.0
2018-09-02T07:03:19.056Z,1018.0
2018-09-02T07:04:21.088Z,1018.0
2018-09-02T07:05:23.188Z,1018.0
2018-09-02T07:06:25.136Z,1018.0
2018-09-02T07:07:27.376Z,1018.1
2018-09-02T07:08:29.344Z,1018.1
2018-09-02T07:09:31.719Z,1018.1
2018-09-02T07:10:33.633Z,1018.0
2018-09-02T07:11:35.731Z,1018.0
2018-09-02T07:12:37.689Z,1018.0
2018-09-02T07:13:39.538Z,1018.0
2018-09-02T07:14:41.412Z,1018.0
2018-09-02T07:15:43.418Z,1018.0
2018-09-02T07:16:45.317Z,1018.0
2018-09-02T07:17:47.213Z,1018.0
2018-09-02T07:18:49.228Z,1018.0
2018-09-02T07:19:51.087Z,1018.0
2018-09-02T07:20:52.964Z,1018.0
2018-09-02T07:21:54.911Z,1018.1
2018-09-02T07:22:57.112Z,1018.0
2018-09-02T07:23:59.064Z,1018.1
2018-09-02T07:25:00.940Z,1018.2
2018-09-02T07:26:02.785Z,1018.2
2018-09-02T07:27:04.681Z,1018.2
2018-09-02T07:28:06.553Z,1018.3
2018-09-02T07:29:08.459Z,1018.4
2018-09-02T07:30:10.658Z,1018.7
2018-09-02T07:31:12.529Z,1018.8
2018-09-02T07:32:14.455Z,1018.8
2018-09-02T07:33:16.534Z,1018.8
2018-09-02T07:34:18.420Z,1018.5
2018-09-02T07:35:20.457Z,1018.4
2018-09-02T07:36:22.348Z,1018.3
2018-09-02T07:37:24.308Z,1018.2
2018-09-02T07:38:26.203Z,1018.1
2018-09-02T07:39:28.107Z,1018.1
2018-09-02T07:40:30.036Z,1018.1
2018-09-02T07:41:32.231Z,1018.1
2018-09-02T07:42:34.246Z,1018.0
2018-09-02T07:43:36.074Z,1018.1
2018-09-02T07:44:38.305Z,1018.0
2018-09-02T07:45:40.908Z,1018.0
2018-09-02T07:46:42.710Z,1018.0
2018-09-02T07:47:44.599Z,1017.9
2018-09-02T07:48:46.603Z,1018.0
2018-09-02T07:49:48.692Z,1018.0
2018-09-02T07:50:50.602Z,1018.0
2018-09-02T07:51:52.403Z,1018.0
2018-09-02T07:52:54.506Z,1018.0
2018-09-02T07:53:56.380Z,1018.0
2018-09-02T07:54:58.441Z,1018.0
2018-09-02T07:56:00.307Z,1018.0
2018-09-02T07:57:02.258Z,1018.0
2018-09-02T07:58:04.999Z,1018.0
2018-09-02T07:59:07.028Z,1018.0
2018-09-02T08:00:08.998Z,1018.0
2018-09-02T08:01:10.825Z,1018.0
2018-09-02T08:02:13.162Z,1018.0
2018-09-02T08:03:15.008Z,1018.0
2018-09-02T08:04:16.797Z,1018.0
2018-09-02T08:05:18.546Z,1018.0
2018-09-02T08:06:20.419Z,1018.0
2018-09-02T08:07:22.557Z,1018.1
2018-09-02T08:08:24.466Z,1018.2
2018-09-02T08:09:26.805Z,1018.3
2018-09-02T08:10:28.661Z,1018.3
2018-09-02T08:11:30.402Z,1018.4
2018-09-02T08:12:32.576Z,1018.4
2018-09-02T08:13:34.568Z,1018.4
2018-09-02T08:14:36.484Z,1018.4
2018-09-02T08:15:38.290Z,1018.4
2018-09-02T08:16:40.887Z,1018.4
2018-09-02T08:17:42.835Z,1018.4
2018-09-02T08:18:44.856Z,1018.3
2018-09-02T08:19:46.925Z,1018.3
2018-09-02T08:20:48.616Z,1018.1
2018-09-02T08:21:50.551Z,1018.0
2018-09-02T08:22:52.504Z,1018.0
2018-09-02T08:23:54.429Z,1018.0
2018-09-02T08:24:56.572Z,1017.9
2018-09-02T08:25:58.405Z,1018.0
2018-09-02T08:27:00.589Z,1018.0
2018-09-02T08:28:02.682Z,1017.9
2018-09-02T08:29:04.762Z,1017.9
2018-09-02T08:30:06.705Z,1017.9
2018-09-02T08:31:08.939Z,1017.9
2018-09-02T08:32:10.898Z,1017.9
2018-09-02T08:33:12.822Z,1017.9
2018-09-02T08:34:14.683Z,1017.9
2018-09-02T08:35:16.558Z,1017.8
2018-09-02T08:36:18.513Z,1017.8
2018-09-02T08:37:20.562Z,1017.9
2018-09-02T08:38:22.319Z,1017.8
2018-09-02T08:39:24.366Z,1017.8
2018-09-02T08:40:26.344Z,1017.9
2018-09-02T08:41:28.334Z,1017.9
2018-09-02T08:42:30.206Z,1017.8
2018-09-02T08:43:32.609Z,1017.8
2018-09-02T08:44:34.688Z,1017.8
2018-09-02T08:45:36.631Z,1017.8
2018-09-02T08:46:38.494Z,1017.8
2018-09-02T08:47:40.542Z,1017.8
2018-09-02T08:48:42.554Z,1017.8
2018-09-02T08:49:44.423Z,1017.8
2018-09-02T08:50:46.641Z,1017.7
2018-09-02T08:51:48.469Z,1017.7
2018-09-02T08:52:50.452Z,1017.7
2018-09-02T08:53:52.485Z,1017.6
2018-09-02T08:54:54.524Z,1017.7
2018-09-02T08:55:56.265Z,1017.6
2018-09-02T08:56:58.254Z,1017.6
2018-09-02T08:58:00.111Z,1017.7
2018-09-02T08:59:02.298Z,1018.1
2018-09-02T09:00:04.531Z,1018.7
2018-09-02T09:01:06.727Z,1018.9
2018-09-02T09:02:08.504Z,1018.9
2018-09-02T09:03:10.681Z,1019.0
2018-09-02T09:04:12.616Z,1019.0
2018-09-02T09:05:14.584Z,1019.1
2018-09-02T09:06:16.563Z,1019.2
2018-09-02T09:07:18.581Z,1019.2
2018-09-02T09:08:20.982Z,1019.2
2018-09-02T09:09:22.913Z,1019.2
2018-09-02T09:10:25.162Z,1019.1
2018-09-02T09:11:27.814Z,1019.1
2018-09-02T09:12:30.011Z,1019.1
2018-09-02T09:13:31.821Z,1019.0
2018-09-02T09:14:33.840Z,1018.9
2018-09-02T09:15:35.873Z,1018.8
2018-09-02T09:16:37.671Z,1018.8
2018-09-02T09:17:39.568Z,1018.8
2018-09-02T09:18:41.615Z,1018.7
2018-09-02T09:19:43.650Z,1018.7
2018-09-02T09:20:45.349Z,1018.7
2018-09-02T09:21:47.471Z,1018.7
2018-09-02T09:22:49.573Z,1018.6
2018-09-02T09:23:51.308Z,1018.5
2018-09-02T09:24:53.289Z,1018.5
2018-09-02T09:25:55.593Z,1018.5
2018-09-02T09:26:58.019Z,1018.4
2018-09-02T09:28:00.677Z,1018.4
2018-09-02T09:29:02.639Z,1018.3
2018-09-02T09:30:05.000Z,1018.2
2018-09-02T09:31:08.232Z,1018.2
2018-09-02T09:32:10.364Z,1018.2
2018-09-02T09:33:13.186Z,1018.2
2018-09-02T09:34:15.390Z,1018.2
2018-09-02T09:35:17.444Z,1018.2
2018-09-02T09:36:19.191Z,1018.1
2018-09-02T09:37:21.335Z,1018.1
2018-09-02T09:38:23.309Z,1018.2
2018-09-02T09:39:25.447Z,1018.1
2018-09-02T09:40:27.548Z,1018.2
2018-09-02T09:41:29.745Z,1018.2
2018-09-02T09:42:31.896Z,1018.2
2018-09-02T09:43:33.839Z,1018.2
2018-09-02T09:44:35.813Z,1018.1
2018-09-02T09:45:37.849Z,1018.2
2018-09-02T09:46:39.969Z,1018.2
2018-09-02T09:47:42.258Z,1018.1
2018-09-02T09:48:44.042Z,1018.1
2018-09-02T09:49:46.190Z,1018.1
2018-09-02T09:50:48.080Z,1018.0
2018-09-02T09:51:50.656Z,1018.0
2018-09-02T09:52:52.843Z,1018.0
2018-09-02T09:53:55.028Z,1018.0
2018-09-02T09:54:57.159Z,1017.9
2018-09-02T09:55:59.353Z,1017.9
2018-09-02T09:57:01.699Z,1018.0
2018-09-02T09:58:03.760Z,1017.9
2018-09-02T09:59:05.652Z,1017.8
2018-09-02T10:00:07.592Z,1017.8
2018-09-02T10:01:09.708Z,1017.8
2018-09-02T10:02:11.539Z,1017.7
2018-09-02T10:03:13.682Z,1017.7
2018-09-02T10:04:15.841Z,1017.7
2018-09-02T10:05:17.865Z,1017.7
2018-09-02T10:06:19.889Z,1017.7
2018-09-02T10:07:21.922Z,1017.6
2018-09-02T10:08:23.957Z,1017.6
2018-09-02T10:09:26.282Z,1017.6
2018-09-02T10:10:28.160Z,1017.7
2018-09-02T10:11:29.984Z,1017.7
2018-09-02T10:12:31.927Z,1017.6
2018-09-02T10:13:34.450Z,1017.7
2018-09-02T10:14:37.471Z,1017.6
2018-09-02T10:15:39.290Z,1017.6
2018-09-02T10:16:41.347Z,1017.6
2018-09-02T10:17:43.287Z,1017.6
2018-09-02T10:18:45.168Z,1017.6
2018-09-02T10:19:47.397Z,1017.6
2018-09-02T10:20:49.759Z,1017.6
2018-09-02T10:21:51.523Z,1017.7
2018-09-02T10:22:54.089Z,1017.6
2018-09-02T10:23:56.027Z,1017.3
2018-09-02T10:24:57.972Z,1017.2
2018-09-02T10:26:00.275Z,1017.2
2018-09-02T10:27:02.153Z,1017.2
2018-09-02T10:28:04.501Z,1017.1
2018-09-02T10:29:06.307Z,1017.1
2018-09-02T10:30:08.902Z,1017.1
2018-09-02T10:31:10.796Z,1017.1
2018-09-02T10:32:13.106Z,1017.1
2018-09-02T10:33:15.473Z,1017.1
2018-09-02T10:34:17.549Z,1017.1
2018-09-02T10:35:19.499Z,1017.1
2018-09-02T10:36:21.411Z,1017.1
2018-09-02T10:37:23.356Z,1017.1
2018-09-02T10:38:25.244Z,1017.1
2018-09-02T10:39:27.123Z,1017.0
2018-09-02T10:40:29.428Z,1017.1
2018-09-02T10:41:31.902Z,1017.1
2018-09-02T10:42:34.206Z,1017.1
2018-09-02T10:43:36.054Z,1017.1
2018-09-02T10:44:37.854Z,1017.0
2018-09-02T10:45:40.002Z,1017.0
2018-09-02T10:46:41.831Z,1016.9
2018-09-02T10:47:43.663Z,1016.9
2018-09-02T10:48:45.949Z,1017.0
2018-09-02T10:49:48.871Z,1017.0
2018-09-02T10:50:51.222Z,1016.9
2018-09-02T10:51:53.484Z,1016.9
2018-09-02T10:52:55.358Z,1016.9
2018-09-02T10:53:57.275Z,1016.9
2018-09-02T10:54:59.893Z,1016.8
2018-09-02T10:56:02.109Z,1016.9
2018-09-02T10:57:04.857Z,1016.8
2018-09-02T10:58:06.975Z,1016.8
2018-09-02T10:59:08.992Z,1016.9
2018-09-02T11:00:10.724Z,1016.8
2018-09-02T11:01:12.574Z,1016.8
2018-09-02T11:02:14.486Z,1016.8
2018-09-02T11:03:16.874Z,1016.8
2018-09-02T11:04:18.627Z,1016.7
2018-09-02T11:05:22.055Z,1016.7
2018-09-02T11:06:24.012Z,1016.7
2018-09-02T11:07:25.820Z,1016.7
2018-09-02T11:08:28.260Z,1016.6
2018-09-02T11:09:30.762Z,1016.6
2018-09-02T11:10:32.521Z,1016.6
2018-09-02T11:11:34.347Z,1016.6
2018-09-02T11:12:36.953Z,1016.7
2018-09-02T11:13:39.056Z,1016.7
2018-09-02T11:14:40.670Z,1016.6
2018-09-02T11:15:42.464Z,1016.6
2018-09-02T11:16:44.637Z,1016.6
2018-09-02T11:17:46.519Z,1016.6
2018-09-02T11:18:48.909Z,1016.5
2018-09-02T11:19:50.683Z,1016.5
2018-09-02T11:20:52.524Z,1016.4
2018-09-02T11:21:54.471Z,1016.4
2018-09-02T11:22:56.714Z,1016.5
2018-09-02T11:23:58.931Z,1016.5
2018-09-02T11:25:01.154Z,1016.5
2018-09-02T11:26:02.972Z,1016.5
2018-09-02T11:27:04.845Z,1016.4
2018-09-02T11:28:06.888Z,1016.4
2018-09-02T11:29:09.365Z,1016.3
2018-09-02T11:30:11.169Z,1016.3
2018-09-02T11:31:13.826Z,1016.4
2018-09-02T11:32:16.087Z,1016.4
2018-09-02T11:33:18.139Z,1016.4
2018-09-02T11:34:20.574Z,1016.4
2018-09-02T11:35:22.728Z,1016.3
2018-09-02T11:36:24.521Z,1016.3
2018-09-02T11:37:26.929Z,1016.4
2018-09-02T11:38:29.228Z,1016.3
2018-09-02T11:39:30.954Z,1016.3
2018-09-02T11:40:33.344Z,1016.3
2018-09-02T11:41:35.863Z,1016.3
2018-09-02T11:42:37.599Z,1016.2
2018-09-02T11:43:39.349Z,1016.2
2018-09-02T11:44:41.432Z,1016.1
2018-09-02T11:45:43.527Z,1016.1
2018-09-02T11:46:45.492Z,1016.1
2018-09-02T11:47:47.270Z,1016.1
2018-09-02T11:48:49.142Z,1016.1
2018-09-02T11:49:51.228Z,1016.1
2018-09-02T11:50:53.130Z,1016.1
2018-09-02T11:51:55.341Z,1016.1
2018-09-02T11:52:56.973Z,1016.1
2018-09-02T11:53:58.713Z,1016.1
2018-09-02T11:55:00.535Z,1016.0
2018-09-02T11:56:02.504Z,1016.0
2018-09-02T11:57:04.403Z,1016.0
2018-09-02T11:58:06.656Z,1016.0
2018-09-02T11:59:08.416Z,1016.1
2018-09-02T12:00:10.345Z,1016.0
2018-09-02T12:01:12.413Z,1016.0
2018-09-02T12:02:14.299Z,1016.0
2018-09-02T12:03:16.356Z,1016.0
2018-09-02T12:04:18.525Z,1016.0
2018-09-02T12:05:20.790Z,1016.0
2018-09-02T12:06:22.993Z,1016.0
2018-09-02T12:07:25.249Z,1016.0
2018-09-02T12:08:27.389Z,1016.0
2018-09-02T12:09:29.620Z,1016.0
2018-09-02T12:10:31.460Z,1016.0
2018-09-02T12:11:33.531Z,1015.9
2018-09-02T12:12:35.344Z,1015.9
2018-09-02T12:13:37.020Z,1015.9
2018-09-02T12:14:39.238Z,1015.9
2018-09-02T12:15:41.375Z,1015.9
2018-09-02T12:16:43.793Z,1015.8
2018-09-02T12:17:45.504Z,1015.8
2018-09-02T12:18:47.301Z,1015.8
2018-09-02T12:19:49.021Z,1015.9
2018-09-02T12:20:51.147Z,1015.9
2018-09-02T12:21:53.375Z,1015.8
2018-09-02T12:22:55.436Z,1015.7
2018-09-02T12:23:57.254Z,1015.7
2018-09-02T12:24:59.002Z,1015.7
2018-09-02T12:26:00.764Z,1015.7
2018-09-02T12:27:02.783Z,1015.7
2018-09-02T12:28:04.661Z,1015.7
2018-09-02T12:29:06.750Z,1015.7
2018-09-02T12:30:08.580Z,1015.7
2018-09-02T12:31:10.817Z,1015.6
2018-09-02T12:32:12.755Z,1015.6
2018-09-02T12:33:14.667Z,1015.7
2018-09-02T12:34:16.707Z,1015.6
2018-09-02T12:35:18.577Z,1015.7
2018-09-02T12:36:20.411Z,1015.7
2018-09-02T12:37:22.289Z,1015.6
2018-09-02T12:38:23.997Z,1015.7
2018-09-02T12:39:26.214Z,1015.6
2018-09-02T12:40:28.032Z,1015.6
2018-09-02T12:41:29.817Z,1015.6
2018-09-02T12:42:31.894Z,1015.6
2018-09-02T12:43:33.855Z,1015.5
2018-09-02T12:44:35.823Z,1015.6
2018-09-02T12:45:37.863Z,1015.6
2018-09-02T12:46:39.613Z,1015.7
2018-09-02T12:47:41.549Z,1015.6
2018-09-02T12:48:43.726Z,1015.6
2018-09-02T12:49:46.191Z,1015.6
2018-09-02T12:50:48.561Z,1015.5
2018-09-02T12:51:50.468Z,1015.6
2018-09-02T12:52:52.179Z,1015.5
2018-09-02T12:53:54.078Z,1015.5